Flight Track Log - Related Links

Times and Time Zones

All times are in EDT time to prevent confusion due to time zone crossing. See the N3738B flight status page for this flight to view local times or setup timezone preferences in your user account.

Time Position Orientation Groundspeed Altitude Reporting Facility
EDT Latitude Longitude Course Direction KTS MPH feet Rate Location/Type
Sun 07:44:35 PM 25.7983 -80.2653 82° East 191 220 900  Level Miami Center
Sun 07:45:18 PM 25.8036 -80.2239 77° East 185 213 2,200 2,250 Climbing Miami Center
Sun 07:46:19 PM 25.8175 -80.1550 North 243 280 4,800 2,268 Climbing Miami Center
Sun 07:47:25 PM 25.8969 -80.1503 347° North 273 314 7,000 1,048 Climbing Miami Center
Sun 07:48:25 PM 25.9678 -80.1683 308° West 294 338 7,000 900 Level Miami Center
Sun 07:49:25 PM 26.0183 -80.2392 280° West 280 322 8,800 1,900 Climbing Miami Center
Sun 07:50:25 PM 26.0328 -80.3344 281° West 271 312 10,800 1,600 Climbing Miami Center
Sun 07:51:25 PM 26.0531 -80.4458 281° West 330 380 12,000 1,700 Climbing Miami Center
Sun 07:52:25 PM 26.0750 -80.5669 296° West 363 418 14,200 2,100 Climbing Miami Center
Sun 07:53:25 PM 26.1225 -80.6769 319° Northwest 386 444 16,200 1,850 Climbing Miami Center
Sun 07:54:25 PM 26.2100 -80.7608 317° Northwest 393 452 17,900 1,850 Climbing Miami Center
Sun 07:55:25 PM 26.3033 -80.8589 319° Northwest 415 478 19,900 1,800 Climbing Miami Center
Sun 07:56:25 PM 26.3908 -80.9453 317° Northwest 422 486 21,500 1,300 Climbing Miami Center
Sun 07:57:25 PM 26.4700 -81.0269 317° Northwest 432 497 22,500 1,100 Climbing Miami Center
Sun 07:58:25 PM 26.5611 -81.1208 310° West 438 504 23,700 1,150 Climbing Miami Center
Sun 07:59:25 PM 26.6494 -81.2400 290° West 444 511 24,800 950 Climbing Miami Center
Sun 08:00:25 PM 26.6933 -81.3742 290° West 462 532 25,600 800 Climbing Miami Center
Sun 08:01:25 PM 26.7392 -81.5156 289° West 474 545 26,400 800 Climbing Miami Center
Sun 08:02:25 PM 26.7789 -81.6428 290° West 486 559 27,200 1,000 Climbing Miami Center
Sun 08:03:25 PM 26.8261 -81.7911 290° West 497 572 28,400 1,200 Climbing Miami Center
Sun 08:04:25 PM 26.8733 -81.9353 288° West 490 564 29,600 1,150 Climbing Miami Center
Sun 08:05:25 PM 26.9142 -82.0767 288° West 490 564 30,700 1,150 Climbing Miami Center
Sun 08:06:25 PM 26.9569 -82.2206 288° West 490 564 31,900 1,150 Climbing Miami Center
Sun 08:07:25 PM 26.9956 -82.3575 285° West 484 557 33,000 900 Climbing Miami Center
Sun 08:08:25 PM 27.0278 -82.4942 290° West 477 549 33,700 500 Climbing Miami Center
Sun 08:09:25 PM 27.0764 -82.6411 288° West 477 549 34,000 100 Climbing Miami Center
Sun 08:10:25 PM 27.1203 -82.7972 287° West 483 556 33,900  Descending Miami Center
Sun 08:11:25 PM 27.1581 -82.9367 287° West 477 549 34,000 50 Climbing Miami Center
Sun 08:12:25 PM 27.1958 -83.0786 288° West 477 549 34,000 -50 Level Miami Center
Sun 08:13:25 PM 27.2358 -83.2186 287° West 477 549 33,900  Descending Miami Center
Sun 08:14:25 PM 27.2733 -83.3583 287° West 477 549 34,000 50 Climbing Miami Center
Sun 08:15:25 PM 27.3108 -83.4981 288° West 477 549 34,000 -50 Level Miami Center
Sun 08:16:25 PM 27.3503 -83.6358 286° West 472 543 33,900  Descending Miami Center
Sun 08:17:25 PM 27.3856 -83.7736 288° West 467 537 34,000 50 Climbing Miami Center
Sun 08:18:25 PM 27.4247 -83.9114 287° West 467 537 34,000  Level Miami Center
Sun 08:19:25 PM 27.4617 -84.0517 287° West 467 537 34,000 -32 Level Miami Center
Sun 08:21:34 PM 27.5408 -84.3481 288° West 483 556 33,900 -32 Descending Jacksonville Center
Sun 08:22:34 PM 27.5811 -84.4844 289° West 471 542 33,900 50 Level Jacksonville Center
Sun 08:23:34 PM 27.6211 -84.6183 282° West 460 529 34,000  Climbing Jacksonville Center
Sun 08:24:34 PM 27.6464 -84.7478 285° West 449 517 33,900  Descending Jacksonville Center
Sun 08:25:34 PM 27.6797 -84.8842 287° West 449 517 34,000 50 Climbing Jacksonville Center
Sun 08:26:34 PM 27.7153 -85.0161 285° West 443 510 34,000  Level Jacksonville Center
Sun 08:27:34 PM 27.7483 -85.1528 289° West 443 510 34,000  Level Jacksonville Center
Sun 08:28:34 PM 27.7856 -85.2781 285° West 437 503 34,000  Level Jacksonville Center
Sun 08:29:34 PM 27.8186 -85.4147 287° West 437 503 34,000  Level Jacksonville Center
Sun 08:30:34 PM 27.8536 -85.5447 284° West 442 509 34,000 -50 Level Jacksonville Center
Sun 08:31:34 PM 27.8858 -85.6911 288° West 448 516 33,900  Descending Jacksonville Center
Sun 08:32:34 PM 27.9228 -85.8167 285° West 442 509 34,000 50 Climbing Jacksonville Center
Sun 08:33:34 PM 27.9531 -85.9489 287° West 437 503 34,000 -50 Level Jacksonville Center
Sun 08:34:34 PM 27.9875 -86.0792 286° West 437 503 33,900 -50 Descending Jacksonville Center
Sun 08:35:34 PM 28.0217 -86.2144 286° West 437 503 33,900 50 Level Jacksonville Center
Sun 08:36:34 PM 28.0536 -86.3447 285° West 442 509 34,000 50 Climbing Jacksonville Center
Sun 08:37:34 PM 28.0856 -86.4775 286° West 433 498 34,000  Level Jacksonville Center
Sun 08:38:34 PM 28.1172 -86.6056 286° West 437 503 34,000  Level Jacksonville Center
Sun 08:39:34 PM 28.1508 -86.7411 286° West 432 497 34,000  Level Jacksonville Center
Sun 08:40:34 PM 28.1825 -86.8694 286° West 440 506 34,000 -50 Level Jacksonville Center
Sun 08:41:34 PM 28.2178 -87.0050 286° West 438 504 33,900  Descending Jacksonville Center
Sun 08:42:34 PM 28.2453 -87.1169 285° West 430 495 34,000 50 Climbing Jacksonville Center
Sun 08:43:34 PM 28.2764 -87.2478 286° West 425 489 34,000  Level Jacksonville Center
Sun 08:44:34 PM 28.3078 -87.3717 286° West 413 475 34,000  Level Jacksonville Center
Sun 08:47:02 PM 28.3867 -87.6958 285° West 414 476 34,000 -29 Level Houston Center
Sun 08:48:02 PM 28.4175 -87.8269 284° West 414 476 33,900  Descending Houston Center
Sun 08:49:02 PM 28.4436 -87.9489 286° West 408 470 34,000 50 Climbing Houston Center
Sun 08:50:02 PM 28.4764 -88.0825 284° West 416 479 34,000  Level Houston Center
Sun 08:51:02 PM 28.5025 -88.2022 285° West 411 473 34,000  Level Houston Center
Sun 08:52:02 PM 28.5328 -88.3289 285° West 419 482 34,000  Level Houston Center
Sun 08:53:02 PM 28.5631 -88.4581 283° West 424 488 34,000 -50 Level Houston Center
Sun 08:54:02 PM 28.5911 -88.5919 285° West 430 495 33,900  Descending Houston Center
Sun 08:55:02 PM 28.6214 -88.7236 284° West 430 495 34,000 50 Climbing Houston Center
Sun 08:56:02 PM 28.6511 -88.8556 285° West 430 495 34,000  Level Houston Center
Sun 08:57:02 PM 28.6808 -88.9825 284° West 430 495 34,000  Level Houston Center
Sun 08:58:02 PM 28.7083 -89.1097 284° West 430 495 34,000  Level Houston Center
Sun 08:59:02 PM 28.7378 -89.2417 285° West 430 495 34,000 -50 Level Houston Center
Sun 09:00:02 PM 28.7672 -89.3692 284° West 425 489 33,900  Descending Houston Center
Sun 09:01:02 PM 28.7964 -89.4989 283° West 425 489 34,000 50 Climbing Houston Center
Sun 09:02:02 PM 28.8236 -89.6311 284° West 430 495 34,000  Level Houston Center
Sun 09:03:02 PM 28.8525 -89.7608 284° West 430 495 34,000  Level Houston Center
Sun 09:04:02 PM 28.8817 -89.8933 284° West 430 495 34,000 -50 Level Houston Center
Sun 09:05:02 PM 28.9103 -90.0233 284° West 430 495 33,900  Descending Houston Center
Sun 09:06:02 PM 28.9344 -90.1322 286° West 430 495 34,000 50 Climbing Houston Center
Sun 09:07:02 PM 28.9694 -90.2694 288° West 425 489 34,000  Level Houston Center
Sun 09:08:02 PM 29.0061 -90.3994 287° West 425 489 34,000  Level Houston Center
Sun 09:09:02 PM 29.0428 -90.5347 287° West 436 502 34,000  Level Houston Center
Sun 09:10:02 PM 29.0772 -90.6603 288° West 436 502 34,000 -50 Level Houston Center
Sun 09:11:02 PM 29.1158 -90.7931 288° West 436 502 33,900  Descending Houston Center
Sun 09:12:02 PM 29.1519 -90.9211 288° West 436 502 34,000 50 Climbing Houston Center
Sun 09:13:02 PM 29.1881 -91.0494 289° West 431 496 34,000 -50 Level Houston Center
Sun 09:14:02 PM 29.2264 -91.1778 291° West 426 490 33,900  Descending Houston Center
Sun 09:15:02 PM 29.2683 -91.3061 290° West 426 490 34,000 50 Climbing Houston Center
Sun 09:16:02 PM 29.3106 -91.4372 288° West 426 490 34,000  Level Houston Center
Sun 09:17:02 PM 29.3461 -91.5633 291° West 426 490 34,000  Level Houston Center
Sun 09:18:02 PM 29.3881 -91.6919 288° West 426 490 34,000  Level Houston Center
Sun 09:19:02 PM 29.4233 -91.8161 289° West 425 489 34,000 600 Level Houston Center
Sun 09:20:02 PM 29.4608 -91.9450 288° West 425 489 35,200 1,000 Climbing Houston Center
Sun 09:21:02 PM 29.4958 -92.0667 291° West 425 489 36,000 350 Climbing Houston Center
Sun 09:22:02 PM 29.5353 -92.1864 289° West 415 478 35,900  Descending Houston Center
Sun 09:23:02 PM 29.5722 -92.3108 289° West 410 472 36,000 50 Climbing Houston Center
Sun 09:24:02 PM 29.6092 -92.4328 288° West 410 472 36,000 -50 Level Houston Center
Sun 09:25:02 PM 29.6439 -92.5575 288° West 410 472 35,900  Descending Houston Center
Sun 09:26:02 PM 29.6786 -92.6797 289° West 404 465 36,000 50 Climbing Houston Center
Sun 09:27:02 PM 29.7153 -92.7997 289° West 404 465 36,000  Level Houston Center
Sun 09:28:02 PM 29.7517 -92.9197 288° West 404 465 36,000 -50 Level Houston Center
Sun 09:29:02 PM 29.7861 -93.0422 289° West 404 465 35,900  Descending Houston Center
Sun 09:30:01 PM 29.8244 -93.1719 288° West 404 465 36,000 50 Climbing Houston Center
Sun 09:31:02 PM 29.8583 -93.2922 288° West 404 465 36,000 -50 Level Houston Center
Sun 09:32:01 PM 29.8925 -93.4125 289° West 404 465 35,900 -50 Descending Houston Center
Sun 09:33:02 PM 29.9283 -93.5306 287° West 404 465 35,900 50 Level Houston Center
Sun 09:34:02 PM 29.9600 -93.6533 289° West 404 465 36,000  Climbing Houston Center
Sun 09:35:01 PM 29.9958 -93.7739 288° West 404 465 35,900  Descending Houston Center
Sun 09:36:02 PM 30.0314 -93.8969 289° West 404 465 36,000 50 Climbing Houston Center
Sun 09:37:02 PM 30.0669 -94.0156 288° West 404 465 36,000 -50 Level Houston Center
Sun 09:38:02 PM 30.1003 -94.1339 287° West 404 465 35,900  Descending Houston Center
Sun 09:39:02 PM 30.1336 -94.2569 289° West 404 465 36,000 50 Climbing Houston Center
Sun 09:40:02 PM 30.1689 -94.3781 287° West 404 465 36,000 -50 Level Houston Center
Sun 09:41:02 PM 30.1939 -94.4725 289° West 404 465 35,900  Descending Houston Center
Sun 09:42:02 PM 30.2331 -94.6056 288° West 404 465 36,000 50 Climbing Houston Center
Sun 09:43:02 PM 30.2678 -94.7269 287° West 404 465 36,000  Level Houston Center
Sun 09:44:02 PM 30.3006 -94.8481 288° West 404 465 36,000  Level Houston Center
Sun 09:45:02 PM 30.3389 -94.9864 287° West 404 465 36,000  Level Houston Center
Sun 09:46:02 PM 30.3714 -95.1078 288° West 404 465 36,000  Level Houston Center
Sun 09:47:02 PM 30.4058 -95.2317 286° West 404 465 36,000  Level Houston Center
Sun 09:48:02 PM 30.4322 -95.3364 287° West 398 458 36,000  Level Houston Center
Sun 09:49:02 PM 30.4681 -95.4725 287° West 404 465 36,000  Level Houston Center
Sun 09:50:02 PM 30.5000 -95.5942 287° West 404 465 36,000  Level Houston Center
Sun 09:51:02 PM 30.5319 -95.7133 288° West 404 465 36,000  Level Houston Center
Sun 09:52:02 PM 30.5658 -95.8353 287° West 399 459 36,000  Level Houston Center
Sun 09:53:02 PM 30.5975 -95.9572 288° West 399 459 36,000  Level Houston Center
Sun 09:54:02 PM 30.6311 -96.0744 287° West 399 459 36,000  Level Houston Center
Sun 09:55:02 PM 30.6628 -96.1964 286° West 399 459 36,000  Level Houston Center
Sun 09:56:02 PM 30.6939 -96.3211 287° West 404 465 36,000  Level Houston Center
Sun 09:57:02 PM 30.7233 -96.4311 287° West 404 465 36,000  Level Houston Center
Sun 09:58:02 PM 30.7547 -96.5508 287° West 404 465 36,000  Level Houston Center
Sun 09:59:02 PM 30.7878 -96.6733 286° West 404 465 36,000  Level Houston Center
Sun 10:00:02 PM 30.8183 -96.7981 287° West 404 465 36,000  Level Houston Center
Sun 10:01:02 PM 30.8492 -96.9181 286° West 397 457 36,000  Level Houston Center
Sun 10:02:02 PM 30.8800 -97.0406 286° West 397 457 36,000  Level Houston Center
Sun 10:03:02 PM 30.9086 -97.1533 286° West 397 457 36,000  Level Houston Center
Sun 10:04:02 PM 30.9444 -97.2981 286° West 416 479 36,000  Level Houston Center
Sun 10:05:02 PM 30.9764 -97.4306 286° West 416 479 36,000  Level Houston Center
Sun 10:06:02 PM 31.0067 -97.5533 287° West 416 479 36,000  Level Houston Center
Sun 10:07:02 PM 31.0386 -97.6786 286° West 405 466 36,000  Level Houston Center
Sun 10:08:02 PM 31.0703 -97.8042 286° West 398 458 36,000  Level Houston Center
Sun 10:09:23 PM 31.1117 -97.9739 287° West 419 482 36,000  Level Fort Worth Center
Sun 10:10:23 PM 31.1444 -98.1028 286° West 419 482 36,000  Level Fort Worth Center
Sun 10:11:23 PM 31.1750 -98.2292 285° West 409 471 36,000  Level Fort Worth Center
Sun 10:12:23 PM 31.2075 -98.3678 285° West 409 471 36,000  Level Fort Worth Center
Sun 10:13:23 PM 31.2378 -98.4969 286° West 414 476 36,000  Level Fort Worth Center
Sun 10:14:23 PM 31.2700 -98.6261 287° West 414 476 36,000  Level Fort Worth Center
Sun 10:15:23 PM 31.3022 -98.7531 285° West 414 476 36,000  Level Fort Worth Center
Sun 10:16:23 PM 31.3319 -98.8847 286° West 414 476 36,000  Level Fort Worth Center
Sun 10:17:23 PM 31.3639 -99.0142 287° West 419 482 36,000 -50 Level Fort Worth Center
Sun 10:18:23 PM 31.3975 -99.1439 284° West 419 482 35,900  Descending Fort Worth Center
Sun 10:19:23 PM 31.4211 -99.2586 285° West 414 476 36,000 50 Climbing Fort Worth Center
Sun 10:20:23 PM 31.4503 -99.3858 285° West 414 476 36,000  Level Fort Worth Center
Sun 10:21:23 PM 31.4817 -99.5228 285° West 420 483 36,000  Level Fort Worth Center
Sun 10:22:23 PM 31.5106 -99.6503 286° West 420 483 36,000  Level Fort Worth Center
Sun 10:23:23 PM 31.5417 -99.7803 286° West 420 483 36,000  Level Fort Worth Center
Sun 10:24:23 PM 31.5725 -99.9103 285° West 420 483 36,000  Level Fort Worth Center
Sun 10:25:23 PM 31.6072 -100.0600 285° West 420 483 36,000  Level Fort Worth Center
Sun 10:26:23 PM 31.6358 -100.1853 284° West 420 483 36,000  Level Fort Worth Center
Sun 10:27:23 PM 31.6622 -100.3056 284° West 415 478 36,000  Level Fort Worth Center
Sun 10:28:23 PM 31.6906 -100.4358 284° West 420 483 36,000  Level Fort Worth Center
Sun 10:29:23 PM 31.7186 -100.5661 287° West 420 483 36,000  Level Fort Worth Center
Sun 10:30:23 PM 31.7547 -100.7092 284° West 415 478 36,000  Level Fort Worth Center
Sun 10:31:23 PM 31.7825 -100.8372 285° West 415 478 36,000  Level Fort Worth Center
Sun 10:32:23 PM 31.8122 -100.9703 285° West 415 478 36,000 -50 Level Fort Worth Center
Sun 10:33:23 PM 31.8417 -101.1033 284° West 421 484 35,900  Descending Fort Worth Center
Sun 10:34:23 PM 31.8711 -101.2392 284° West 421 484 36,000  Climbing Fort Worth Center
Sun 10:35:23 PM 31.8983 -101.3700 285° West 421 484 35,900  Descending Fort Worth Center
Sun 10:36:23 PM 31.9294 -101.5058 284° West 421 484 36,000 50 Climbing Fort Worth Center
Sun 10:37:23 PM 31.9583 -101.6444 285° West 426 490 36,000  Level Fort Worth Center
Sun 10:38:23 PM 31.9892 -101.7806 284° West 426 490 36,000  Level Fort Worth Center
Sun 10:39:23 PM 32.0178 -101.9117 283° West 426 490 36,000  Level Fort Worth Center
Sun 10:40:23 PM 32.0444 -102.0453 284° West 420 483 36,000  Level Fort Worth Center
Sun 10:41:23 PM 32.0728 -102.1817 284° West 425 489 36,000  Level Fort Worth Center
Sun 10:42:23 PM 32.1008 -102.3156 283° West 425 489 36,000  Level Fort Worth Center
Sun 10:43:23 PM 32.1269 -102.4517 283° West 425 489 36,000  Level Fort Worth Center
Sun 10:44:23 PM 32.1511 -102.5758 283° West 425 489 36,000  Level Fort Worth Center
Sun 10:45:23 PM 32.1786 -102.7122 284° West 425 489 36,000  Level Fort Worth Center
Sun 10:46:23 PM 32.2100 -102.8614 283° West 430 495 36,000  Level Fort Worth Center
Sun 10:47:23 PM 32.2372 -102.9981 284° West 430 495 36,000  Level Fort Worth Center
Sun 10:48:23 PM 32.2667 -103.1350 284° West 430 495 36,000  Level Fort Worth Center
Sun 10:49:23 PM 32.2939 -103.2692 283° West 430 495 36,000  Level Fort Worth Center
Sun 10:50:23 PM 32.3208 -103.4061 283° West 430 495 36,000  Level Fort Worth Center
Sun 10:51:23 PM 32.3475 -103.5433 282° West 430 495 36,000  Level Fort Worth Center
Sun 10:52:28 PM 32.3711 -103.6800 283° West 429 494 36,000  Level Albuquerque Center
Sun 10:53:29 PM 32.3989 -103.8189 282° West 429 494 36,000  Level Albuquerque Center
Sun 10:54:30 PM 32.4250 -103.9597 284° West 433 498 36,000  Level Albuquerque Center
Sun 10:55:32 PM 32.4578 -104.1189 283° West 434 499 36,000  Level Albuquerque Center
Sun 10:56:33 PM 32.4839 -104.2558 283° West 429 494 36,000  Level Albuquerque Center
Sun 10:57:35 PM 32.5094 -104.3886 282° West 418 481 36,000  Level Albuquerque Center
Sun 10:58:36 PM 32.5339 -104.5208 283° West 414 476 36,000  Level Albuquerque Center
Sun 10:59:38 PM 32.5611 -104.6628 282° West 412 474 36,000  Level Albuquerque Center
Sun 11:00:39 PM 32.5844 -104.7925 282° West 407 468 36,000  Level Albuquerque Center
Sun 11:01:41 PM 32.6089 -104.9247 283° West 409 471 36,000  Level Albuquerque Center
Sun 11:02:42 PM 32.6325 -105.0494 283° West 417 480 36,000  Level Albuquerque Center
Sun 11:03:44 PM 32.6578 -105.1819 282° West 416 479 36,000 390 Level Albuquerque Center
Sun 11:04:45 PM 32.6858 -105.3414 282° West 414 476 36,800 878 Climbing Albuquerque Center
Sun 11:05:47 PM 32.7092 -105.4706 282° West 407 468 37,800 537 Climbing Albuquerque Center
Sun 11:06:48 PM 32.7322 -105.5975 282° West 399 459 37,900 98 Climbing Albuquerque Center
Sun 11:07:50 PM 32.7553 -105.7264 282° West 399 459 38,000 49 Climbing Albuquerque Center
Sun 11:08:51 PM 32.7786 -105.8578 282° West 405 466 38,000 -49 Level Albuquerque Center
Sun 11:09:52 PM 32.8047 -106.0061 282° West 409 471 37,900  Descending Albuquerque Center
Sun 11:10:54 PM 32.8278 -106.1367 282° West 408 470 38,000 49 Climbing Albuquerque Center
Sun 11:11:55 PM 32.8506 -106.2678 282° West 406 467 38,000  Level Albuquerque Center
Sun 11:12:57 PM 32.8739 -106.3981 281° West 406 467 38,000  Level Albuquerque Center
Sun 11:13:58 PM 32.8958 -106.5289 281° West 406 467 38,000  Level Albuquerque Center
Sun 11:15:00 PM 32.9178 -106.6592 281° West 405 466 38,000 -49 Level Albuquerque Center
Sun 11:16:01 PM 32.9394 -106.7900 282° West 406 467 37,900 -49 Descending Albuquerque Center
Sun 11:17:03 PM 32.9661 -106.9456 281° West 404 465 37,900 48 Level Albuquerque Center
Sun 11:18:05 PM 32.9875 -107.0769 281° West 406 467 38,000 49 Climbing Albuquerque Center
Sun 11:19:06 PM 33.0092 -107.2083 281° West 407 468 38,000  Level Albuquerque Center
Sun 11:20:08 PM 33.0303 -107.3356 281° West 402 463 38,000  Level Albuquerque Center
Sun 11:21:10 PM 33.0508 -107.4650 281° West 401 461 38,000  Level Albuquerque Center
Sun 11:22:11 PM 33.0719 -107.5944 279° West 401 461 38,000  Level Albuquerque Center
Sun 11:23:13 PM 33.0928 -107.7489 276° West 397 457 38,000  Level Albuquerque Center
Sun 11:24:14 PM 33.1033 -107.8769 276° West 393 452 38,000  Level Albuquerque Center
Sun 11:25:16 PM 33.1150 -108.0094 278° West 396 456 38,000  Level Albuquerque Center
Sun 11:26:18 PM 33.1297 -108.1372 276° West 396 456 38,000  Level Albuquerque Center
Sun 11:27:19 PM 33.1417 -108.2658 276° West 396 456 38,000  Level Albuquerque Center
Sun 11:28:21 PM 33.1536 -108.3956 277° West 397 457 38,000  Level Albuquerque Center
Sun 11:29:22 PM 33.1683 -108.5500 277° West 396 456 38,000  Level Albuquerque Center
Sun 11:30:24 PM 33.1806 -108.6775 276° West 393 452 38,000  Level Albuquerque Center
Sun 11:31:26 PM 33.1925 -108.8122 276° West 393 452 38,000 -49 Level Albuquerque Center
Sun 11:32:27 PM 33.2033 -108.9419 276° West 394 453 37,900 -49 Descending Albuquerque Center
Sun 11:33:29 PM 33.2153 -109.0703 276° West 392 451 37,900 48 Level Albuquerque Center
Sun 11:34:31 PM 33.2272 -109.2117 276° West 395 455 38,000 49 Climbing Albuquerque Center
Sun 11:35:32 PM 33.2381 -109.3389 276° West 393 452 38,000  Level Albuquerque Center
Sun 11:36:34 PM 33.2486 -109.4661 276° West 391 450 38,000  Level Albuquerque Center
Sun 11:37:35 PM 33.2592 -109.5950 276° West 393 452 38,000  Level Albuquerque Center
Sun 11:38:37 PM 33.2700 -109.7258 275° West 396 456 38,000  Level Albuquerque Center
Sun 11:39:39 PM 33.2819 -109.8808 275° West 395 455 38,000  Level Albuquerque Center
Sun 11:40:40 PM 33.2922 -110.0108 276° West 397 457 38,000  Level Albuquerque Center
Sun 11:41:42 PM 33.3039 -110.1417 276° West 399 459 38,000  Level Albuquerque Center
Sun 11:42:43 PM 33.3147 -110.2714 275° West 397 457 38,000  Level Albuquerque Center
Sun 11:43:45 PM 33.3247 -110.4008 275° West 395 455 38,000  Level Albuquerque Center
Sun 11:44:46 PM 33.3342 -110.5283 275° West 392 451 38,000  Level Albuquerque Center
Sun 11:45:48 PM 33.3461 -110.6814 275° West 390 449 38,000  Level Albuquerque Center
Sun 11:46:49 PM 33.3550 -110.8039 275° West 384 442 38,000  Level Albuquerque Center
Sun 11:47:51 PM 33.3636 -110.9303 275° West 378 435 38,000  Level Albuquerque Center
Sun 11:48:52 PM 33.3722 -111.0558 275° West 374 430 38,000  Level Albuquerque Center
Sun 11:49:54 PM 33.3808 -111.1831 275° West 376 433 38,000  Level Albuquerque Center
Sun 11:50:55 PM 33.3897 -111.3103 275° West 378 435 38,000  Level Albuquerque Center
Sun 11:51:57 PM 33.3992 -111.4386 274° West 380 437 38,000  Level Albuquerque Center
Sun 11:52:58 PM 33.4075 -111.5672 275° West 380 437 38,000  Level Albuquerque Center
Sun 11:54:00 PM 33.4164 -111.6961 274° West 380 437 38,000  Level Albuquerque Center
Sun 11:55:01 PM 33.4247 -111.8267 275° West 384 442 38,000  Level Albuquerque Center
Sun 11:56:03 PM 33.4333 -111.9558 285° West 383 441 38,000  Level Albuquerque Center
Sun 11:57:04 PM 33.4619 -112.0806 287° West 384 442 38,000  Level Albuquerque Center
Sun 11:58:05 PM 33.4939 -112.2044 287° West 383 441 38,000  Level Albuquerque Center
Sun 11:59:07 PM 33.5261 -112.3297 287° West 385 443 38,000  Level Albuquerque Center
Mon 12:00:08 AM 33.5578 -112.4531 287° West 381 438 38,000  Level Albuquerque Center
Mon 12:01:10 AM 33.5897 -112.5761 286° West 380 437 38,000  Level Albuquerque Center
Mon 12:02:11 AM 33.6228 -112.7108 287° West 379 436 38,000  Level Albuquerque Center
Mon 12:03:12 AM 33.6558 -112.8411 287° West 380 437 38,000  Level Albuquerque Center
Mon 12:04:14 AM 33.6831 -112.9461 286° West 380 437 38,000  Level Albuquerque Center
Mon 12:05:15 AM 33.7133 -113.0700 287° West 380 437 38,000  Level Albuquerque Center
Mon 12:06:16 AM 33.7436 -113.1925 287° West 379 436 38,000  Level Albuquerque Center
Mon 12:07:18 AM 33.7744 -113.3167 286° West 380 437 38,000  Level Albuquerque Center
Mon 12:08:19 AM 33.8044 -113.4406 287° West 380 437 38,000  Level Albuquerque Center
Mon 12:09:20 AM 33.8347 -113.5633 287° West 379 436 38,000  Level Albuquerque Center
Mon 12:10:21 AM 33.8650 -113.6864 286° West 379 436 38,000  Level Albuquerque Center
Mon 12:11:23 AM 33.8944 -113.8108 277° West 379 436 38,000  Level Albuquerque Center
Mon 12:12:24 AM 33.9072 -113.9400 279° West 385 443 38,000  Level Albuquerque Center
Mon 12:13:25 AM 33.9236 -114.0717 278° West 390 449 38,000 -263 Level Albuquerque Center
Mon 12:14:18 AM 33.9369 -114.1933 279° West 389 448 37,500 -743 Descending Los Angeles Center
Mon 12:15:18 AM 33.9533 -114.3231 278° West 389 448 36,600 -950 Descending Los Angeles Center
Mon 12:16:18 AM 33.9678 -114.4556 278° West 389 448 35,600 -950 Descending Los Angeles Center
Mon 12:17:18 AM 33.9819 -114.5831 278° West 389 448 34,700 -950 Descending Los Angeles Center
Mon 12:18:18 AM 33.9983 -114.7206 278° West 395 455 33,700 -850 Descending Los Angeles Center
Mon 12:19:18 AM 34.0144 -114.8531 277° West 406 467 33,000 -350 Descending Los Angeles Center
Mon 12:20:18 AM 34.0283 -114.9883 277° West 411 473 33,000 -50 Level Los Angeles Center
Mon 12:21:18 AM 34.0419 -115.1236 278° West 406 467 32,900 -450 Descending Los Angeles Center
Mon 12:22:18 AM 34.0575 -115.2611 277° West 411 473 32,100 -1,000 Descending Los Angeles Center
Mon 12:23:18 AM 34.0731 -115.4167 280° West 417 480 30,900 -1,050 Descending Los Angeles Center
Mon 12:24:18 AM 34.0928 -115.5594 276° West 424 488 30,000 -450 Descending Los Angeles Center
Mon 12:25:18 AM 34.1058 -115.7022 268° West 429 494 30,000  Level Los Angeles Center
Mon 12:26:18 AM 34.1019 -115.8478 260° West 429 494 30,000 -50 Level Los Angeles Center
Mon 12:27:18 AM 34.0814 -115.9883 259° West 435 501 29,900  Descending Los Angeles Center
Mon 12:28:18 AM 34.0586 -116.1314 261° West 435 501 30,000  Climbing Los Angeles Center
Mon 12:29:18 AM 34.0397 -116.2767 259° West 440 506 29,900 -900 Descending Los Angeles Center
Mon 12:30:18 AM 34.0164 -116.4194 263° West 440 506 28,200 -1,850 Descending Los Angeles Center
Mon 12:31:18 AM 34.0033 -116.5472 265° West 440 506 26,200 -2,150 Descending Los Angeles Center
Mon 12:32:18 AM 33.9925 -116.6850 265° West 435 501 23,900 -2,300 Descending Los Angeles Center
Mon 12:33:18 AM 33.9833 -116.8178 264° West 415 478 21,600 -2,250 Descending Los Angeles Center
Mon 12:34:18 AM 33.9722 -116.9478 264° West 404 465 19,400 -2,200 Descending Los Angeles Center
Mon 12:35:18 AM 33.9608 -117.0731 263° West 398 458 17,200 -1,200 Descending Los Angeles Center
Mon 12:36:18 AM 33.9472 -117.1981 265° West 380 437 17,000 -900 Descending Los Angeles Center
Mon 12:37:18 AM 33.9400 -117.3031 271° West 339 390 15,400 -1,550 Descending Los Angeles Center
Mon 12:38:18 AM 33.9411 -117.4058 294° West 323 372 13,900 -1,500 Descending Los Angeles Center
Mon 12:39:18 AM 33.9756 -117.4989 294° West 306 352 12,400 -1,450 Descending Los Angeles Center
Mon 12:40:18 AM 34.0100 -117.5922 269° West 306 352 11,000 -1,200 Descending Los Angeles Center
Mon 12:41:18 AM 34.0086 -117.6900 263° West 299 344 10,000 -1,100 Descending Los Angeles Center
Mon 12:42:18 AM 33.9992 -117.7775 263° West 280 322 8,800 -1,050 Descending Los Angeles Center
Mon 12:43:18 AM 33.9919 -117.8500 258° West 268 308 7,900 -1,121 Descending Los Angeles Center
Mon 12:43:49 AM 33.9833 -117.9000 270° West 236 272 7,100 -1,129 Descending Southern California TRACON
Mon 12:44:43 AM 33.9833 -117.9667 253° West 235 270 6,300 -842 Descending Southern California TRACON
Mon 12:45:43 AM 33.9667 -118.0333 270° West 223 257 5,500 -835 Descending Southern California TRACON
Mon 12:46:38 AM 33.9667 -118.1000 270° West 197 227 4,700 -942 Descending Southern California TRACON
Mon 12:47:44 AM 33.9667 -118.1667 253° West 194 223 3,600 -1,048 Descending Southern California TRACON
Mon 12:48:44 AM 33.9500 -118.2333 270° West 191 220 2,500 -1,000 Descending Southern California TRACON
Mon 12:49:44 AM 33.9500 -118.3000 239° Southwest 169 194 1,600 -895 Descending Southern California TRACON
Mon 12:50:38 AM 33.9333 -118.3333 273° West 153 176 800 -584 Descending Southern California TRACON
Mon 12:52:18 AM 33.9383 -118.4372 273° West 175 201 100 -420 Descending Los Angeles Center

Login

Don't have an account? Register now (free) for customized features, flight alerts, and more!